createdAt,value
2018-12-21T00:02:23.539Z,8.83
2018-12-21T00:04:54.570Z,8.76
2018-12-21T00:07:24.693Z,8.80
2018-12-21T00:09:56.763Z,8.83
2018-12-21T00:12:27.410Z,8.77
2018-12-21T00:14:58.186Z,8.84
2018-12-21T00:17:34.423Z,8.79
2018-12-21T00:20:07.905Z,8.82
2018-12-21T00:22:38.457Z,8.82
2018-12-21T00:25:11.260Z,8.84
2018-12-21T00:27:42.564Z,8.84
2018-12-21T00:30:20.014Z,8.79
2018-12-21T00:32:55.012Z,8.79
2018-12-21T00:35:30.070Z,8.74
2018-12-21T00:38:05.752Z,8.86
2018-12-21T00:40:40.765Z,8.90
2018-12-21T00:43:18.682Z,9.00
2018-12-21T00:45:53.843Z,9.04
2018-12-21T00:48:24.733Z,8.90
2018-12-21T00:50:56.482Z,8.82
2018-12-21T00:53:25.889Z,8.89
2018-12-21T00:55:55.705Z,8.96
2018-12-21T00:58:25.404Z,8.89
2018-12-21T01:00:55.743Z,8.90
2018-12-21T01:03:25.226Z,8.92
2018-12-21T01:05:55.632Z,9.01
2018-12-21T01:08:25.791Z,9.08
2018-12-21T01:10:57.230Z,9.11
2018-12-21T01:13:26.995Z,8.62
2018-12-21T01:15:57.157Z,9.14
2018-12-21T01:18:27.496Z,9.07
2018-12-21T01:20:57.322Z,9.11
2018-12-21T01:23:27.146Z,9.13
2018-12-21T01:25:57.426Z,9.12
2018-12-21T01:28:27.930Z,9.11
2018-12-21T01:30:57.513Z,9.12
2018-12-21T01:33:31.285Z,9.07
2018-12-21T01:36:02.441Z,8.99
2018-12-21T01:38:32.835Z,9.03
2018-12-21T01:41:03.104Z,8.93
2018-12-21T01:43:32.500Z,8.92
2018-12-21T01:46:03.075Z,8.80
2018-12-21T01:48:32.423Z,8.82
2018-12-21T01:51:02.245Z,8.79
2018-12-21T01:53:33.354Z,8.80
2018-12-21T01:56:04.082Z,8.74
2018-12-21T01:58:33.833Z,8.72
2018-12-21T02:01:04.973Z,8.67
2018-12-21T02:03:34.380Z,8.66
2018-12-21T02:06:03.996Z,8.65
2018-12-21T02:08:33.700Z,8.61
2018-12-21T02:11:03.816Z,8.54
2018-12-21T02:13:34.349Z,8.53
2018-12-21T02:16:03.866Z,8.59
2018-12-21T02:18:34.123Z,8.68
2018-12-21T02:21:04.878Z,8.65
2018-12-21T02:23:34.794Z,8.66
2018-12-21T02:26:05.479Z,8.67
2018-12-21T02:28:37.157Z,8.67
2018-12-21T02:31:07.820Z,8.68
2018-12-21T02:33:37.822Z,8.68
2018-12-21T02:36:08.449Z,8.67
2018-12-21T02:38:38.173Z,8.67
2018-12-21T02:41:08.032Z,8.63
2018-12-21T02:43:38.127Z,8.62
2018-12-21T02:46:09.010Z,8.60
2018-12-21T02:48:39.210Z,8.55
2018-12-21T02:51:09.965Z,8.47
2018-12-21T02:53:39.849Z,8.51
2018-12-21T02:56:09.367Z,8.57
2018-12-21T02:58:39.256Z,8.55
2018-12-21T03:01:09.030Z,8.55
2018-12-21T03:03:39.829Z,8.59
2018-12-21T03:06:10.545Z,8.52
2018-12-21T03:08:40.801Z,8.53
2018-12-21T03:11:10.859Z,8.57
2018-12-21T03:13:40.904Z,8.54
2018-12-21T03:16:13.157Z,8.56
2018-12-21T03:18:42.901Z,8.50
2018-12-21T03:21:12.745Z,8.49
2018-12-21T03:23:42.419Z,8.45
2018-12-21T03:26:12.890Z,8.40
2018-12-21T03:28:42.671Z,8.40
2018-12-21T03:31:12.579Z,8.40
2018-12-21T03:33:42.382Z,8.36
2018-12-21T03:36:12.695Z,8.39
2018-12-21T03:38:42.587Z,8.43
2018-12-21T03:41:12.499Z,8.46
2018-12-21T03:43:42.212Z,8.43
2018-12-21T03:46:13.003Z,8.40
2018-12-21T03:48:44.954Z,8.44
2018-12-21T03:51:16.501Z,8.44
2018-12-21T03:53:48.182Z,8.43
2018-12-21T03:56:18.675Z,8.39
2018-12-21T03:58:48.747Z,8.59
2018-12-21T04:01:18.818Z,8.64
2018-12-21T04:03:48.554Z,8.65
2018-12-21T04:06:19.680Z,8.73
2018-12-21T04:08:49.119Z,8.78
2018-12-21T04:11:20.218Z,8.85
2018-12-21T04:13:50.577Z,8.89
2018-12-21T04:16:21.340Z,8.92
2018-12-21T04:18:51.725Z,8.97
2018-12-21T04:21:22.290Z,8.52
2018-12-21T04:23:52.530Z,9.01
2018-12-21T04:26:22.439Z,9.04
2018-12-21T04:28:52.571Z,9.08
2018-12-21T04:31:22.714Z,9.06
2018-12-21T04:33:52.538Z,9.09
2018-12-21T04:36:22.259Z,9.11
2018-12-21T04:38:52.498Z,9.10
2018-12-21T04:41:25.065Z,9.03
2018-12-21T04:44:01.823Z,9.00
2018-12-21T04:46:32.767Z,9.04
2018-12-21T04:49:03.343Z,8.43
2018-12-21T04:51:33.690Z,9.06
2018-12-21T04:54:03.956Z,9.01
2018-12-21T04:56:33.971Z,9.09
2018-12-21T04:59:04.185Z,9.03
2018-12-21T05:01:34.108Z,9.08
2018-12-21T05:04:04.101Z,9.09
2018-12-21T05:06:35.522Z,9.11
2018-12-21T05:09:06.950Z,9.14
2018-12-21T05:11:39.978Z,9.24
2018-12-21T05:14:09.859Z,9.24
2018-12-21T05:16:39.734Z,9.21
2018-12-21T05:19:09.636Z,9.19
2018-12-21T05:21:40.372Z,9.20
2018-12-21T05:24:12.279Z,9.24
2018-12-21T05:26:41.912Z,8.70
2018-12-21T05:29:11.499Z,9.28
2018-12-21T05:31:41.559Z,9.28
2018-12-21T05:34:11.582Z,9.33
2018-12-21T05:36:41.644Z,9.37
2018-12-21T05:39:11.777Z,9.39
2018-12-21T05:41:41.498Z,9.32
2018-12-21T05:44:11.334Z,9.29
2018-12-21T05:46:41.621Z,9.33
2018-12-21T05:49:12.091Z,9.39
2018-12-21T05:51:42.161Z,9.42
2018-12-21T05:54:13.251Z,9.39
2018-12-21T05:56:44.507Z,9.33
2018-12-21T05:59:14.696Z,9.30
2018-12-21T06:01:45.312Z,9.27
2018-12-21T06:04:15.964Z,9.19
2018-12-21T06:06:45.512Z,8.86
2018-12-21T06:09:16.711Z,9.09
2018-12-21T06:11:46.082Z,9.12
2018-12-21T06:14:15.585Z,9.08
2018-12-21T06:16:45.554Z,9.04
2018-12-21T06:19:15.048Z,9.01
2018-12-21T06:21:44.771Z,8.99
2018-12-21T06:24:15.152Z,9.03
2018-12-21T06:26:44.985Z,9.04
2018-12-21T06:29:14.763Z,8.96
2018-12-21T06:31:45.256Z,8.91
2018-12-21T06:34:14.720Z,8.93
2018-12-21T06:36:44.470Z,8.10
2018-12-21T06:39:14.459Z,8.96
2018-12-21T06:41:43.913Z,8.93
2018-12-21T06:44:13.829Z,8.87
2018-12-21T06:46:43.762Z,8.91
2018-12-21T06:49:14.158Z,8.95
2018-12-21T06:51:44.227Z,8.90
2018-12-21T06:54:14.413Z,8.95
2018-12-21T06:56:43.983Z,9.05
2018-12-21T06:59:14.532Z,8.96
2018-12-21T07:01:44.820Z,8.95
2018-12-21T07:04:14.446Z,9.03
2018-12-21T07:06:43.862Z,9.11
2018-12-21T07:09:14.372Z,9.17
2018-12-21T07:11:44.195Z,9.18
2018-12-21T07:14:14.363Z,9.12
2018-12-21T07:16:44.580Z,9.09
2018-12-21T07:19:14.030Z,9.10
2018-12-21T07:21:44.072Z,9.07
2018-12-21T07:24:15.106Z,9.04
2018-12-21T07:26:44.732Z,9.08
2018-12-21T07:29:14.294Z,9.04
2018-12-21T07:31:44.455Z,9.11
2018-12-21T07:34:13.863Z,9.13
2018-12-21T07:36:43.266Z,9.11
2018-12-21T07:39:13.901Z,9.14
2018-12-21T07:41:43.421Z,9.09
2018-12-21T07:44:13.501Z,9.21
2018-12-21T07:46:43.798Z,9.19
2018-12-21T07:49:13.675Z,9.24
2018-12-21T07:51:43.997Z,9.20
2018-12-21T07:54:14.486Z,9.20
2018-12-21T07:56:43.937Z,9.17
2018-12-21T07:59:13.548Z,9.09
2018-12-21T08:01:45.573Z,9.10
2018-12-21T08:04:15.503Z,9.16
2018-12-21T08:06:45.228Z,9.25
2018-12-21T08:09:16.326Z,9.24
2018-12-21T08:15:00.581Z,9.19
2018-12-21T08:17:30.650Z,9.10
2018-12-21T08:20:00.797Z,9.09
2018-12-21T08:22:30.285Z,9.03
2018-12-21T08:24:59.804Z,9.04
2018-12-21T08:27:31.986Z,9.05
2018-12-21T08:30:02.623Z,9.07
2018-12-21T08:32:32.990Z,8.95
2018-12-21T08:35:05.264Z,8.92
2018-12-21T08:37:36.491Z,8.90
2018-12-21T08:40:10.748Z,8.86
2018-12-21T08:42:42.363Z,8.94
2018-12-21T08:45:13.268Z,9.07
2018-12-21T08:47:43.115Z,9.09
2018-12-21T08:50:13.419Z,9.08
2018-12-21T08:52:43.631Z,9.05
2018-12-21T08:55:13.148Z,9.04
2018-12-21T08:57:43.098Z,8.84
2018-12-21T09:00:15.336Z,8.89
2018-12-21T09:02:44.726Z,8.79
2018-12-21T09:05:19.079Z,8.84
2018-12-21T09:07:48.957Z,8.90
2018-12-21T09:10:19.250Z,8.84
2018-12-21T09:12:48.799Z,8.39
2018-12-21T09:15:20.242Z,8.76
2018-12-21T09:17:49.983Z,8.83
2018-12-21T09:20:21.355Z,8.91
2018-12-21T09:22:51.272Z,8.85
2018-12-21T09:25:24.862Z,8.80
2018-12-21T09:27:54.751Z,8.83
2018-12-21T09:30:25.288Z,8.84
2018-12-21T09:32:55.184Z,8.74
2018-12-21T09:35:25.085Z,8.58
2018-12-21T09:37:54.695Z,8.53
2018-12-21T09:40:25.517Z,8.69
2018-12-21T09:42:55.915Z,8.77
2018-12-21T09:45:25.888Z,8.65
2018-12-21T09:47:55.926Z,8.63
2018-12-21T09:50:26.256Z,8.72
2018-12-21T09:52:56.011Z,8.86
2018-12-21T09:55:26.075Z,8.76
2018-12-21T09:57:55.999Z,8.79
2018-12-21T10:00:26.097Z,8.74
2018-12-21T10:02:56.520Z,8.71
2018-12-21T10:05:28.805Z,8.79
2018-12-21T10:07:59.993Z,8.87
2018-12-21T10:10:29.805Z,8.82
2018-12-21T10:12:59.872Z,8.90
2018-12-21T10:15:31.327Z,8.87
2018-12-21T10:18:01.521Z,8.83
2018-12-21T10:20:31.206Z,8.90
2018-12-21T10:23:04.380Z,8.95
2018-12-21T10:25:34.638Z,9.03
2018-12-21T10:28:05.418Z,9.08
2018-12-21T10:30:35.208Z,8.91
2018-12-21T10:33:05.666Z,9.08
2018-12-21T10:35:35.211Z,9.05
2018-12-21T10:38:04.892Z,9.12
2018-12-21T10:40:34.346Z,9.18
2018-12-21T10:43:05.218Z,9.29
2018-12-21T10:45:41.595Z,9.27
2018-12-21T10:48:07.481Z,9.31
2018-12-21T10:50:37.019Z,9.16
2018-12-21T10:53:06.911Z,9.18
2018-12-21T10:55:36.911Z,8.58
2018-12-21T10:58:07.109Z,9.27
2018-12-21T11:00:37.155Z,9.24
2018-12-21T11:03:07.385Z,9.27
2018-12-21T11:05:36.947Z,9.30
2018-12-21T11:08:06.783Z,9.21
2018-12-21T11:10:36.781Z,9.18
2018-12-21T11:13:06.657Z,9.18
2018-12-21T11:15:37.939Z,9.23
2018-12-21T11:18:08.727Z,9.32
2018-12-21T11:20:38.580Z,9.41
2018-12-21T11:23:09.296Z,9.43
2018-12-21T11:25:39.646Z,9.42
2018-12-21T11:28:09.212Z,9.51
2018-12-21T11:30:39.670Z,9.57
2018-12-21T11:33:10.686Z,9.71
2018-12-21T11:35:41.672Z,9.77
2018-12-21T11:38:11.763Z,9.74
2018-12-21T11:40:41.298Z,9.75
2018-12-21T11:43:11.102Z,9.90
2018-12-21T11:45:44.510Z,10.03
2018-12-21T11:48:14.252Z,10.08
2018-12-21T11:50:44.047Z,10.10
2018-12-21T11:53:14.780Z,10.07
2018-12-21T11:55:46.315Z,10.16
2018-12-21T11:58:16.663Z,10.32
2018-12-21T12:00:46.805Z,10.30
2018-12-21T12:03:17.140Z,10.39
2018-12-21T12:05:48.005Z,10.47
2018-12-21T12:08:17.795Z,9.94
2018-12-21T12:10:48.034Z,10.54
2018-12-21T12:13:18.495Z,10.44
2018-12-21T12:15:47.971Z,10.46
2018-12-21T12:18:17.817Z,10.48
2018-12-21T12:20:47.861Z,10.59
2018-12-21T12:23:18.239Z,10.68
2018-12-21T12:25:47.848Z,10.77
2018-12-21T12:28:17.705Z,10.74
2018-12-21T12:30:47.365Z,10.75
2018-12-21T12:33:17.060Z,10.87
2018-12-21T12:35:47.178Z,11.07
2018-12-21T12:38:16.902Z,11.15
2018-12-21T12:40:47.261Z,11.16
2018-12-21T12:43:17.064Z,11.16
2018-12-21T12:45:47.080Z,10.58
2018-12-21T12:48:16.814Z,11.26
2018-12-21T12:50:46.488Z,11.14
2018-12-21T12:53:17.628Z,11.23
2018-12-21T12:55:48.555Z,11.19
2018-12-21T12:58:22.015Z,11.29
2018-12-21T13:00:52.078Z,11.10
2018-12-21T13:03:22.324Z,11.01
2018-12-21T13:05:53.624Z,11.09
2018-12-21T13:08:23.837Z,11.04
2018-12-21T13:10:53.609Z,11.08
2018-12-21T13:13:24.973Z,11.14
2018-12-21T13:15:55.894Z,11.16
2018-12-21T13:18:25.449Z,11.22
2018-12-21T13:20:56.040Z,11.26
2018-12-21T13:23:26.439Z,10.97
2018-12-21T13:25:57.246Z,11.41
2018-12-21T13:28:27.028Z,11.59
2018-12-21T13:30:56.997Z,11.61
2018-12-21T13:33:26.423Z,11.59
2018-12-21T13:35:56.347Z,11.53
2018-12-21T13:38:26.552Z,11.61
2018-12-21T13:40:57.269Z,11.65
2018-12-21T13:43:28.405Z,11.49
2018-12-21T13:45:59.514Z,11.51
2018-12-21T13:48:29.763Z,11.54
2018-12-21T13:50:59.280Z,11.59
2018-12-21T13:53:29.778Z,11.55
2018-12-21T13:55:59.547Z,11.62
2018-12-21T13:58:30.086Z,11.65
2018-12-21T14:01:00.406Z,11.71
2018-12-21T14:03:31.566Z,11.74
2018-12-21T14:06:04.774Z,11.81
2018-12-21T14:08:34.805Z,11.86
2018-12-21T14:11:05.240Z,11.74
2018-12-21T14:13:34.800Z,11.81
2018-12-21T14:16:05.508Z,11.39
2018-12-21T14:18:34.961Z,11.89
2018-12-21T14:21:05.306Z,11.85
2018-12-21T14:23:35.884Z,11.90
2018-12-21T14:26:05.858Z,11.98
2018-12-21T14:28:35.755Z,12.10
2018-12-21T14:31:07.534Z,12.11
2018-12-21T14:33:37.857Z,12.06
2018-12-21T14:36:07.876Z,12.08
2018-12-21T14:38:37.283Z,12.14
2018-12-21T14:41:08.580Z,12.12
2018-12-21T14:43:39.160Z,12.08
2018-12-21T14:46:08.649Z,12.19
2018-12-21T14:48:38.384Z,12.21
2018-12-21T14:51:08.421Z,12.31
2018-12-21T14:53:38.334Z,12.32
2018-12-21T14:56:07.898Z,12.33
2018-12-21T14:58:38.066Z,12.37
2018-12-21T15:01:07.912Z,12.36
2018-12-21T15:03:37.499Z,12.43
2018-12-21T15:06:08.328Z,12.48
2018-12-21T15:08:38.608Z,12.52
2018-12-21T15:11:09.730Z,12.54
2018-12-21T15:13:40.028Z,12.56
2018-12-21T15:16:10.803Z,12.55
2018-12-21T15:18:40.516Z,12.67
2018-12-21T15:21:10.680Z,12.65
2018-12-21T15:23:40.977Z,12.13
2018-12-21T15:26:10.720Z,12.77
2018-12-21T15:28:40.797Z,12.75
2018-12-21T15:31:12.701Z,12.21
2018-12-21T15:33:43.535Z,12.59
2018-12-21T15:36:13.764Z,12.57
2018-12-21T15:38:43.527Z,12.46
2018-12-21T15:41:13.079Z,12.53
2018-12-21T15:43:44.854Z,12.50
2018-12-21T15:46:16.255Z,12.49
2018-12-21T15:48:46.297Z,12.56
2018-12-21T15:51:16.404Z,12.63
2018-12-21T15:53:46.296Z,12.60
2018-12-21T15:56:16.927Z,12.63
2018-12-21T15:58:53.141Z,12.59
2018-12-21T16:01:27.347Z,12.51
2018-12-21T16:03:58.890Z,12.46
2018-12-21T16:06:30.833Z,12.52
2018-12-21T16:09:01.412Z,12.61
2018-12-21T16:11:33.040Z,12.66
2018-12-21T16:14:05.549Z,12.74
2018-12-21T16:16:37.007Z,12.78
2018-12-21T16:19:09.564Z,12.22
2018-12-21T16:21:45.694Z,12.68
2018-12-21T16:24:18.091Z,12.63
2018-12-21T16:26:47.856Z,12.60
2018-12-21T16:29:19.813Z,12.56
2018-12-21T16:31:52.633Z,12.56
2018-12-21T16:34:23.693Z,12.73
2018-12-21T16:36:55.412Z,12.73
2018-12-21T16:39:25.918Z,12.76
2018-12-21T16:41:57.595Z,12.82
2018-12-21T16:44:29.073Z,12.76
2018-12-21T16:46:59.456Z,12.83
2018-12-21T16:49:29.943Z,12.81
2018-12-21T16:51:59.466Z,12.86
2018-12-21T16:54:28.936Z,12.97
2018-12-21T16:56:59.955Z,12.98
2018-12-21T16:59:30.668Z,13.07
2018-12-21T17:02:00.399Z,13.04
2018-12-21T17:04:31.959Z,13.23
2018-12-21T17:07:03.031Z,13.21
2018-12-21T17:10:03.473Z,13.15
2018-12-21T17:12:35.109Z,13.13
2018-12-21T17:15:07.911Z,13.21
2018-12-21T17:17:39.764Z,13.24
2018-12-21T17:20:12.279Z,13.22
2018-12-21T17:22:52.699Z,13.18
2018-12-21T17:25:24.312Z,13.28
2018-12-21T17:27:56.157Z,13.33
2018-12-21T17:30:26.173Z,13.31
2018-12-21T17:32:55.927Z,13.22
2018-12-21T17:35:26.534Z,13.22
2018-12-21T17:37:57.793Z,13.32
2018-12-21T17:40:29.328Z,13.27
2018-12-21T17:42:59.714Z,13.29
2018-12-21T17:45:32.414Z,13.28
2018-12-21T17:48:07.319Z,13.29
2018-12-21T17:50:38.094Z,13.39
2018-12-21T17:53:08.731Z,13.36
2018-12-21T17:55:38.901Z,13.29
2018-12-21T17:58:11.048Z,13.24
2018-12-21T18:00:41.763Z,13.23
2018-12-21T18:03:18.765Z,13.17
2018-12-21T18:05:48.372Z,12.80
2018-12-21T18:08:18.140Z,13.14
2018-12-21T18:10:47.735Z,13.16
2018-12-21T18:13:17.404Z,13.11
2018-12-21T18:15:47.241Z,13.05
2018-12-21T18:18:25.017Z,13.07
2018-12-21T18:20:49.120Z,13.01
2018-12-21T18:23:23.282Z,12.98
2018-12-21T18:25:53.540Z,13.01
2018-12-21T18:28:27.024Z,12.97
2018-12-21T18:32:10.076Z,12.90
2018-12-21T18:34:40.192Z,12.76
2018-12-21T18:37:13.086Z,12.74
2018-12-21T18:39:48.560Z,12.71
2018-12-21T18:42:20.181Z,12.59
2018-12-21T18:44:51.379Z,12.66
2018-12-21T18:47:26.092Z,12.62
2018-12-21T18:49:57.366Z,12.59
2018-12-21T18:52:27.591Z,12.53
2018-12-21T18:54:58.528Z,12.55
2018-12-21T18:57:28.745Z,12.60
2018-12-21T19:00:00.879Z,12.66
2018-12-21T19:02:33.420Z,12.68
2018-12-21T19:05:07.468Z,11.95
2018-12-21T19:07:38.859Z,12.73
2018-12-21T19:10:13.250Z,12.78
2018-12-21T19:12:51.945Z,12.75
2018-12-21T19:15:24.168Z,12.78
2018-12-21T19:17:54.429Z,12.78
2018-12-21T19:20:31.587Z,12.75
2018-12-21T19:23:08.429Z,12.73
2018-12-21T19:25:39.879Z,12.75
2018-12-21T19:28:12.091Z,12.71
2018-12-21T19:30:43.958Z,12.49
2018-12-21T19:33:23.384Z,12.44
2018-12-21T19:35:54.175Z,12.26
2018-12-21T19:38:24.769Z,12.16
2018-12-21T19:40:54.904Z,11.96
2018-12-21T19:43:28.239Z,11.91
2018-12-21T19:46:01.108Z,11.61
2018-12-21T19:48:33.608Z,11.31
2018-12-21T19:51:04.806Z,11.22
2018-12-21T19:53:34.880Z,11.18
2018-12-21T19:56:18.499Z,11.23
2018-12-21T19:58:49.419Z,11.31
2018-12-21T20:01:20.773Z,11.22
2018-12-21T20:03:50.546Z,11.17
2018-12-21T20:06:20.337Z,11.17
2018-12-21T20:08:50.030Z,10.61
2018-12-21T20:11:21.248Z,11.13
2018-12-21T20:17:41.177Z,11.12
2018-12-21T20:20:12.089Z,11.13
2018-12-21T20:22:42.366Z,10.82
2018-12-21T20:25:12.978Z,11.28
2018-12-21T20:27:42.845Z,11.33
2018-12-21T20:30:15.506Z,11.42
2018-12-21T20:32:45.255Z,11.48
2018-12-21T20:35:17.226Z,11.53
2018-12-21T20:37:46.963Z,11.59
2018-12-21T20:40:17.407Z,11.61
2018-12-21T20:42:47.441Z,11.71
2018-12-21T20:45:18.398Z,11.71
2018-12-21T20:48:00.503Z,11.75
2018-12-21T20:50:31.094Z,11.79
2018-12-21T20:53:02.324Z,11.81
2018-12-21T20:55:33.756Z,11.82
2018-12-21T20:58:13.056Z,11.83
2018-12-21T21:00:44.161Z,11.89
2018-12-21T21:03:15.392Z,11.81
2018-12-21T21:05:45.313Z,11.83
2018-12-21T21:08:16.177Z,11.82
2018-12-21T21:10:46.387Z,11.87
2018-12-21T21:13:19.349Z,11.84
2018-12-21T21:15:48.776Z,11.82
2018-12-21T21:18:21.470Z,11.90
2018-12-21T21:20:51.794Z,11.93
2018-12-21T21:23:21.189Z,11.98
2018-12-21T21:25:52.983Z,12.03
2018-12-21T21:28:25.367Z,12.07
2018-12-21T21:30:55.627Z,12.11
2018-12-21T21:33:25.058Z,12.06
2018-12-21T21:35:54.786Z,12.10
2018-12-21T21:38:24.571Z,12.11
2018-12-21T21:40:53.965Z,12.18
2018-12-21T21:43:23.380Z,12.15
2018-12-21T21:45:53.183Z,12.12
2018-12-21T21:48:22.772Z,12.16
2018-12-21T21:50:52.825Z,11.98
2018-12-21T21:53:22.709Z,11.49
2018-12-21T21:55:53.856Z,12.05
2018-12-21T21:58:23.541Z,12.07
2018-12-21T22:00:53.023Z,11.97
2018-12-21T22:03:23.255Z,11.96
2018-12-21T22:05:53.577Z,11.89
2018-12-21T22:08:23.958Z,11.92
2018-12-21T22:11:01.513Z,11.93
2018-12-21T22:13:26.164Z,11.96
2018-12-21T22:15:55.823Z,11.97
2018-12-21T22:18:26.139Z,11.93
2018-12-21T22:20:57.801Z,11.90
2018-12-21T22:23:28.493Z,11.96
2018-12-21T22:25:59.093Z,11.98
2018-12-21T22:28:28.726Z,11.86
2018-12-21T22:31:00.420Z,11.84
2018-12-21T22:33:29.873Z,11.82
2018-12-21T22:35:59.285Z,11.78
2018-12-21T22:38:29.119Z,11.79
2018-12-21T22:40:58.642Z,11.77
2018-12-21T22:43:28.476Z,11.74
2018-12-21T22:45:59.662Z,11.79
2018-12-21T22:48:31.383Z,11.78
2018-12-21T22:51:01.651Z,11.73
2018-12-21T22:53:32.634Z,11.79
2018-12-21T22:56:03.539Z,11.80
2018-12-21T22:58:33.092Z,11.83
2018-12-21T23:01:03.091Z,11.90
2018-12-21T23:03:35.422Z,11.98
2018-12-21T23:06:05.874Z,12.06
2018-12-21T23:08:35.260Z,12.08
2018-12-21T23:11:04.731Z,12.06
2018-12-21T23:13:34.537Z,12.09
2018-12-21T23:16:04.933Z,12.09
2018-12-21T23:18:35.073Z,12.06
2018-12-21T23:21:04.980Z,12.15
2018-12-21T23:23:34.906Z,12.16
2018-12-21T23:26:05.047Z,12.17
2018-12-21T23:28:35.596Z,12.28
2018-12-21T23:31:05.482Z,12.37
2018-12-21T23:40:45.494Z,12.17
2018-12-21T23:43:15.164Z,12.16
2018-12-21T23:45:45.307Z,12.18
2018-12-21T23:48:14.864Z,12.19
2018-12-21T23:50:45.199Z,12.22
2018-12-21T23:53:15.010Z,12.27
2018-12-21T23:55:44.718Z,12.25
2018-12-21T23:58:14.469Z,12.22
